Time;durP1;ratioP1;P1;durP2;ratioP2;P2;SDS_P1;SDS_P2;PMS_P1;PMS_P2;Temp;Humidity;BMP_temperature;BMP_pressure;BME280_temperature;BME280_humidity;BME280_pressure;Samples;Min_cycle;Max_cycle;Signal;HPM_P1;HPM_P2
2022/10/30 00:00:30;;;;;;;27.95;11.82;;;;;;;;;;4941626;29;20058;-71
2022/10/30 00:02:57;;;;;;;32.83;11.73;;;;;;;;;;4946217;28;20129;-71
2022/10/30 00:05:24;;;;;;;22.50;10.73;;;;;;;;;;4931280;29;20067;-72
2022/10/30 00:07:52;;;;;;;28.73;10.68;;;;;;;;;;4946747;29;20055;-71
2022/10/30 00:10:19;;;;;;;23.85;10.52;;;;;;;;;;4932712;29;20095;-72
2022/10/30 00:12:46;;;;;;;23.50;9.88;;;;;;;;;;4926935;29;20187;-72
2022/10/30 00:15:13;;;;;;;29.85;10.77;;;;;;;;;;4929757;29;20051;-71
2022/10/30 00:17:42;;;;;;;30.95;10.50;;;;;;;;;;4947417;28;20121;-71
2022/10/30 00:20:09;;;;;;;23.15;10.45;;;;;;;;;;4929805;29;20051;-72
2022/10/30 00:22:37;;;;;;;22.98;10.25;;;;;;;;;;4947370;29;20105;-72
2022/10/30 00:25:04;;;;;;;23.67;10.05;;;;;;;;;;4936980;29;20524;-71
2022/10/30 00:27:32;;;;;;;30.50;10.18;;;;;;;;;;4944656;29;20050;-71
2022/10/30 00:29:59;;;;;;;27.85;10.32;;;;;;;;;;4927393;29;20704;-71
2022/10/30 00:32:26;;;;;;;23.50;10.82;;;;;;;;;;4920097;29;20079;-71
2022/10/30 00:34:55;;;;;;;28.45;9.52;;;;;;;;;;4928289;29;20110;-72
2022/10/30 00:37:22;;;;;;;19.52;9.65;;;;;;;;;;4921907;29;20142;-72
2022/10/30 00:39:49;;;;;;;27.80;10.48;;;;;;;;;;4944098;29;20078;-71
2022/10/30 00:42:17;;;;;;;26.95;9.75;;;;;;;;;;4929978;29;20061;-71
2022/10/30 00:44:46;;;;;;;28.23;9.98;;;;;;;;;;4943897;29;20044;-71
2022/10/30 00:47:17;;;;;;;20.38;9.25;;;;;;;;;;4946864;29;20047;-71
2022/10/30 00:49:49;;;;;;;19.70;9.35;;;;;;;;;;4930114;29;20059;-71
2022/10/30 00:52:18;;;;;;;25.80;9.63;;;;;;;;;;4930117;29;20055;-72
2022/10/30 00:54:45;;;;;;;23.40;10.40;;;;;;;;;;4931980;29;20062;-71
2022/10/30 00:57:13;;;;;;;19.35;9.68;;;;;;;;;;4946530;29;20047;-71
2022/10/30 00:59:41;;;;;;;21.60;9.52;;;;;;;;;;4922259;29;20055;-71
2022/10/30 01:02:08;;;;;;;22.17;9.13;;;;;;;;;;4928532;29;20051;-71
2022/10/30 01:04:37;;;;;;;21.98;9.60;;;;;;;;;;4942978;28;20051;-72
2022/10/30 01:07:07;;;;;;;24.10;9.82;;;;;;;;;;4945897;29;20086;-71
2022/10/30 01:09:36;;;;;;;20.92;9.10;;;;;;;;;;4946804;29;20117;-72
2022/10/30 01:12:03;;;;;;;24.20;10.43;;;;;;;;;;4928665;29;20059;-70
2022/10/30 01:14:30;;;;;;;17.00;9.07;;;;;;;;;;4946807;29;20062;-71
2022/10/30 01:17:06;;;;;;;25.33;10.15;;;;;;;;;;4944336;29;20051;-71
2022/10/30 01:19:38;;;;;;;24.52;10.13;;;;;;;;;;4946786;29;20054;-72
2022/10/30 01:22:17;;;;;;;23.00;9.80;;;;;;;;;;4924291;29;20106;-71
2022/10/30 01:24:53;;;;;;;21.35;9.43;;;;;;;;;;4929356;29;20059;-72
2022/10/30 01:27:28;;;;;;;23.92;9.52;;;;;;;;;;4929002;29;20142;-71
2022/10/30 01:29:59;;;;;;;24.42;10.32;;;;;;;;;;4929717;29;20059;-71
2022/10/30 01:32:33;;;;;;;35.35;10.63;;;;;;;;;;4949350;29;20405;-71
2022/10/30 01:35:01;;;;;;;24.48;10.43;;;;;;;;;;4930237;29;20070;-71
2022/10/30 01:37:32;;;;;;;36.13;11.05;;;;;;;;;;4931061;29;20114;-71
2022/10/30 01:40:04;;;;;;;22.13;9.55;;;;;;;;;;4930348;29;20052;-71
2022/10/30 01:42:45;;;;;;;25.80;10.10;;;;;;;;;;4927646;29;20067;-71
2022/10/30 01:45:16;;;;;;;19.35;9.57;;;;;;;;;;4940774;29;20500;-71
2022/10/30 01:47:47;;;;;;;30.98;10.23;;;;;;;;;;4941087;29;20062;-71
2022/10/30 01:50:23;;;;;;;24.02;9.98;;;;;;;;;;4928513;29;20139;-71
2022/10/30 01:52:53;;;;;;;24.83;9.60;;;;;;;;;;4945186;29;20051;-71
2022/10/30 01:55:31;;;;;;;32.35;10.27;;;;;;;;;;4930268;29;20070;-71
2022/10/30 01:58:00;;;;;;;32.72;10.27;;;;;;;;;;4930483;29;20498;-71
2022/10/30 02:00:28;;;;;;;29.00;10.30;;;;;;;;;;4947394;29;20110;-71
2022/10/30 02:02:55;;;;;;;28.65;10.48;;;;;;;;;;4931000;28;20047;-71
2022/10/30 02:05:26;;;;;;;25.13;10.77;;;;;;;;;;4946926;29;20093;-72
2022/10/30 02:07:53;;;;;;;26.08;10.27;;;;;;;;;;4935605;29;20051;-71
2022/10/30 02:10:21;;;;;;;25.05;10.57;;;;;;;;;;4949532;29;20820;-71
2022/10/30 02:12:50;;;;;;;27.42;10.60;;;;;;;;;;4928536;29;20055;-71
2022/10/30 02:15:17;;;;;;;23.17;10.07;;;;;;;;;;4948953;29;20105;-72
2022/10/30 02:17:44;;;;;;;23.95;9.98;;;;;;;;;;4949376;29;20495;-71
2022/10/30 02:20:17;;;;;;;38.72;10.73;;;;;;;;;;4932021;29;20063;-72
2022/10/30 02:22:44;;;;;;;23.17;9.75;;;;;;;;;;4940365;29;20048;-71
2022/10/30 02:25:11;;;;;;;19.02;10.40;;;;;;;;;;4947392;29;20054;-71
2022/10/30 02:27:39;;;;;;;29.30;10.40;;;;;;;;;;4937484;29;20039;-71
2022/10/30 02:30:06;;;;;;;27.52;10.52;;;;;;;;;;4930357;29;20047;-71
2022/10/30 02:32:33;;;;;;;26.80;10.38;;;;;;;;;;4931075;29;20051;-71
2022/10/30 02:35:01;;;;;;;24.95;10.60;;;;;;;;;;4931162;29;20050;-71
2022/10/30 02:37:31;;;;;;;20.23;9.82;;;;;;;;;;4925798;29;20418;-72
2022/10/30 02:39:58;;;;;;;36.08;10.52;;;;;;;;;;4945850;29;20082;-72
2022/10/30 02:42:25;;;;;;;21.60;10.43;;;;;;;;;;4921822;29;20111;-72
2022/10/30 02:44:52;;;;;;;24.77;10.60;;;;;;;;;;4925670;29;20074;-71
2022/10/30 02:47:19;;;;;;;25.45;10.75;;;;;;;;;;4929067;29;20062;-71
2022/10/30 02:49:47;;;;;;;26.55;11.05;;;;;;;;;;4943422;29;20098;-72
2022/10/30 02:52:14;;;;;;;25.35;10.80;;;;;;;;;;4939520;29;20047;-72
2022/10/30 02:54:42;;;;;;;28.48;11.60;;;;;;;;;;4926771;29;20522;-71
2022/10/30 02:57:10;;;;;;;22.00;10.85;;;;;;;;;;4945692;29;20055;-71
2022/10/30 02:59:37;;;;;;;26.52;11.13;;;;;;;;;;4932275;29;20114;-72
2022/10/30 03:02:04;;;;;;;31.73;11.30;;;;;;;;;;4932545;29;20446;-72
2022/10/30 03:04:32;;;;;;;26.25;11.15;;;;;;;;;;4946292;28;20054;-71
2022/10/30 03:06:59;;;;;;;30.33;11.55;;;;;;;;;;4948555;29;20055;-71
2022/10/30 03:09:26;;;;;;;22.23;11.32;;;;;;;;;;4940582;29;20059;-72
2022/10/30 03:11:55;;;;;;;23.83;10.77;;;;;;;;;;4941928;29;20423;-72
2022/10/30 03:14:22;;;;;;;23.70;11.30;;;;;;;;;;4925280;29;20055;-71
2022/10/30 03:16:51;;;;;;;33.15;11.15;;;;;;;;;;4948010;29;20058;-72
2022/10/30 03:19:18;;;;;;;30.27;11.73;;;;;;;;;;4947700;29;20118;-71
2022/10/30 03:21:45;;;;;;;23.05;11.98;;;;;;;;;;4947211;29;20044;-71
2022/10/30 03:24:13;;;;;;;24.42;10.75;;;;;;;;;;4928955;29;20059;-72
2022/10/30 03:26:40;;;;;;;30.52;12.43;;;;;;;;;;4948641;29;20059;-71
2022/10/30 03:29:09;;;;;;;28.85;11.57;;;;;;;;;;4946005;29;20513;-71
2022/10/30 03:31:36;;;;;;;26.73;12.48;;;;;;;;;;4927212;29;20055;-72
2022/10/30 03:34:03;;;;;;;24.77;11.57;;;;;;;;;;4930230;29;20589;-71
2022/10/30 03:36:30;;;;;;;25.90;11.32;;;;;;;;;;4926847;29;20055;-71
2022/10/30 03:38:57;;;;;;;27.95;12.07;;;;;;;;;;4928469;29;20451;-71
2022/10/30 03:41:24;;;;;;;29.25;11.68;;;;;;;;;;4946362;29;20055;-71
2022/10/30 03:43:52;;;;;;;30.80;12.05;;;;;;;;;;4943192;29;20051;-71
2022/10/30 03:46:20;;;;;;;28.42;12.70;;;;;;;;;;4928152;29;20517;-71
2022/10/30 03:48:49;;;;;;;32.05;12.45;;;;;;;;;;4930661;29;20075;-71
2022/10/30 03:51:16;;;;;;;35.88;12.50;;;;;;;;;;4930593;29;20059;-71
2022/10/30 03:53:44;;;;;;;27.25;12.88;;;;;;;;;;4924581;29;20114;-71
2022/10/30 03:56:11;;;;;;;30.17;12.57;;;;;;;;;;4945601;29;20051;-71
2022/10/30 03:58:38;;;;;;;32.70;13.38;;;;;;;;;;4930538;29;20055;-71
2022/10/30 04:01:06;;;;;;;31.42;13.65;;;;;;;;;;4927799;29;20487;-71
2022/10/30 04:03:35;;;;;;;30.08;14.23;;;;;;;;;;4946840;28;20588;-71
2022/10/30 04:06:02;;;;;;;30.38;13.05;;;;;;;;;;4941978;29;20051;-71
2022/10/30 04:08:29;;;;;;;34.33;13.80;;;;;;;;;;4945518;29;20054;-72
2022/10/30 04:10:56;;;;;;;31.25;13.77;;;;;;;;;;4944983;29;20054;-72
2022/10/30 04:13:24;;;;;;;27.17;13.10;;;;;;;;;;4946334;29;20047;-71
2022/10/30 04:15:51;;;;;;;29.35;13.52;;;;;;;;;;4946406;29;20530;-72
2022/10/30 04:18:18;;;;;;;31.02;13.07;;;;;;;;;;4929780;29;20754;-71
2022/10/30 04:20:47;;;;;;;29.00;12.68;;;;;;;;;;4941540;29;20063;-72
2022/10/30 04:23:16;;;;;;;32.50;13.23;;;;;;;;;;4926104;29;20050;-71
2022/10/30 04:25:43;;;;;;;29.30;11.90;;;;;;;;;;4941018;29;20043;-72
2022/10/30 04:28:11;;;;;;;33.22;13.73;;;;;;;;;;4923790;29;20044;-71
2022/10/30 04:30:39;;;;;;;30.80;14.25;;;;;;;;;;4942155;29;20415;-71
2022/10/30 04:33:07;;;;;;;36.10;14.88;;;;;;;;;;4924969;29;20069;-71
2022/10/30 04:35:37;;;;;;;35.28;14.90;;;;;;;;;;4929863;29;20623;-72
2022/10/30 04:38:06;;;;;;;31.85;13.57;;;;;;;;;;4921610;29;20107;-72
2022/10/30 04:40:34;;;;;;;28.05;13.90;;;;;;;;;;4924068;29;20055;-71
2022/10/30 04:43:02;;;;;;;40.38;14.77;;;;;;;;;;4924352;29;20414;-71
2022/10/30 04:45:30;;;;;;;37.33;14.38;;;;;;;;;;4933251;29;20567;-72
2022/10/30 04:48:01;;;;;;;27.77;14.23;;;;;;;;;;4935221;29;20503;-71
2022/10/30 04:50:29;;;;;;;33.70;15.30;;;;;;;;;;4931668;29;20502;-71
2022/10/30 04:52:59;;;;;;;28.90;14.18;;;;;;;;;;4946764;29;20043;-71
2022/10/30 04:55:28;;;;;;;32.30;13.98;;;;;;;;;;4931374;29;20451;-71
2022/10/30 04:57:58;;;;;;;36.55;13.70;;;;;;;;;;4931992;29;20059;-72
2022/10/30 05:00:26;;;;;;;43.30;15.10;;;;;;;;;;4928993;29;20055;-71
2022/10/30 05:02:53;;;;;;;39.05;14.82;;;;;;;;;;4946631;28;20497;-71
2022/10/30 05:05:21;;;;;;;34.30;15.30;;;;;;;;;;4937227;28;20054;-71
2022/10/30 05:07:48;;;;;;;33.63;14.13;;;;;;;;;;4942982;29;20043;-72
2022/10/30 05:10:15;;;;;;;27.35;13.75;;;;;;;;;;4933420;29;20055;-71
2022/10/30 05:12:45;;;;;;;32.53;14.40;;;;;;;;;;4948996;29;20051;-71
2022/10/30 05:15:12;;;;;;;40.22;15.38;;;;;;;;;;4950236;29;20055;-72
2022/10/30 05:17:39;;;;;;;34.08;15.13;;;;;;;;;;4950188;29;20051;-71
2022/10/30 05:20:07;;;;;;;33.92;14.30;;;;;;;;;;4949221;29;20078;-72
2022/10/30 05:22:35;;;;;;;34.53;15.07;;;;;;;;;;4927436;29;20059;-71
2022/10/30 05:25:02;;;;;;;35.15;14.82;;;;;;;;;;4929707;29;20055;-72
2022/10/30 05:27:29;;;;;;;35.78;15.48;;;;;;;;;;4928970;29;20059;-71
2022/10/30 05:29:58;;;;;;;30.35;14.45;;;;;;;;;;4923493;29;20518;-71
2022/10/30 05:32:25;;;;;;;39.83;14.98;;;;;;;;;;4950579;29;20156;-71
2022/10/30 05:34:52;;;;;;;31.38;14.43;;;;;;;;;;4945754;29;20118;-71
2022/10/30 05:37:19;;;;;;;29.77;14.18;;;;;;;;;;4948922;29;20073;-71
2022/10/30 05:39:46;;;;;;;31.33;14.20;;;;;;;;;;4947771;29;20087;-71
2022/10/30 05:42:14;;;;;;;32.75;15.30;;;;;;;;;;4949773;29;20051;-71
2022/10/30 05:44:41;;;;;;;38.72;15.95;;;;;;;;;;4933664;29;20611;-71
2022/10/30 05:47:11;;;;;;;31.95;14.95;;;;;;;;;;4931342;29;20051;-72
2022/10/30 05:49:38;;;;;;;38.30;15.80;;;;;;;;;;4945677;29;20487;-71
2022/10/30 05:52:05;;;;;;;36.63;16.08;;;;;;;;;;4937079;29;20075;-71
2022/10/30 05:54:33;;;;;;;34.45;16.00;;;;;;;;;;4949083;29;20118;-71
2022/10/30 05:57:00;;;;;;;43.80;17.23;;;;;;;;;;4948653;29;20538;-72
2022/10/30 05:59:27;;;;;;;42.20;17.55;;;;;;;;;;4948854;29;20062;-72
2022/10/30 06:01:55;;;;;;;33.17;16.80;;;;;;;;;;4934471;29;20113;-71
2022/10/30 06:04:24;;;;;;;33.70;15.75;;;;;;;;;;4933231;29;20652;-71
2022/10/30 06:06:51;;;;;;;34.55;16.25;;;;;;;;;;4949907;29;20474;-71
2022/10/30 06:09:18;;;;;;;35.90;17.25;;;;;;;;;;4937292;29;20047;-71
2022/10/30 06:11:45;;;;;;;31.23;15.95;;;;;;;;;;4949173;29;20051;-72
2022/10/30 06:14:12;;;;;;;32.47;15.63;;;;;;;;;;4948769;29;20047;-71
2022/10/30 06:16:40;;;;;;;44.55;17.15;;;;;;;;;;4934805;28;20122;-72
2022/10/30 06:19:07;;;;;;;38.78;15.68;;;;;;;;;;4935708;29;20043;-72
2022/10/30 06:21:36;;;;;;;36.30;16.58;;;;;;;;;;4947634;29;20055;-71
2022/10/30 06:24:03;;;;;;;35.60;16.02;;;;;;;;;;4948700;29;20058;-71
2022/10/30 06:26:30;;;;;;;42.80;17.02;;;;;;;;;;4931120;29;20067;-71
2022/10/30 06:28:57;;;;;;;34.83;17.90;;;;;;;;;;4949154;29;20047;-72
2022/10/30 06:31:24;;;;;;;34.70;16.98;;;;;;;;;;4943134;29;20055;-71
2022/10/30 06:33:52;;;;;;;38.03;17.75;;;;;;;;;;4932539;29;20047;-71
2022/10/30 06:36:19;;;;;;;40.38;18.48;;;;;;;;;;4930016;29;20490;-71
2022/10/30 06:38:47;;;;;;;33.95;16.50;;;;;;;;;;4931858;29;20198;-71
2022/10/30 06:41:15;;;;;;;46.67;18.10;;;;;;;;;;4948359;29;20061;-72
2022/10/30 06:43:42;;;;;;;44.13;17.88;;;;;;;;;;4931458;29;20063;-72
2022/10/30 06:46:09;;;;;;;37.03;17.67;;;;;;;;;;4931941;29;20062;-72
2022/10/30 06:48:36;;;;;;;41.00;18.33;;;;;;;;;;4930739;29;20055;-72
2022/10/30 06:51:04;;;;;;;36.75;17.23;;;;;;;;;;4931867;29;20062;-72
2022/10/30 06:53:31;;;;;;;44.38;18.13;;;;;;;;;;4931668;29;21053;-72
2022/10/30 06:56:00;;;;;;;38.83;17.45;;;;;;;;;;4948943;29;20143;-72
2022/10/30 06:58:28;;;;;;;44.83;18.08;;;;;;;;;;4945987;29;20502;-71
2022/10/30 07:00:56;;;;;;;38.60;17.52;;;;;;;;;;4928929;29;20059;-72
2022/10/30 07:03:23;;;;;;;33.78;17.73;;;;;;;;;;4941598;28;20055;-72
2022/10/30 07:05:50;;;;;;;48.17;18.73;;;;;;;;;;4926715;29;20052;-71
2022/10/30 07:08:17;;;;;;;39.67;17.25;;;;;;;;;;4928373;29;20425;-71
2022/10/30 07:10:44;;;;;;;41.28;17.90;;;;;;;;;;4928086;29;20570;-71
2022/10/30 07:13:13;;;;;;;38.15;17.67;;;;;;;;;;4947535;29;20515;-71
2022/10/30 07:15:40;;;;;;;33.38;17.63;;;;;;;;;;4947791;29;20066;-72
2022/10/30 07:18:07;;;;;;;38.67;17.40;;;;;;;;;;4944377;29;20118;-72
2022/10/30 07:20:35;;;;;;;45.72;17.08;;;;;;;;;;4929858;29;20063;-72
2022/10/30 07:23:03;;;;;;;36.83;15.48;;;;;;;;;;4931857;29;20063;-72
2022/10/30 07:25:30;;;;;;;42.08;17.70;;;;;;;;;;4947893;29;20051;-71
2022/10/30 07:27:57;;;;;;;41.38;16.35;;;;;;;;;;4930520;29;20047;-72
2022/10/30 07:30:27;;;;;;;36.67;16.77;;;;;;;;;;4927727;29;20515;-72
2022/10/30 07:32:58;;;;;;;32.08;16.08;;;;;;;;;;4945134;29;20150;-72
2022/10/30 07:35:25;;;;;;;35.20;16.00;;;;;;;;;;4944477;29;20067;-72
2022/10/30 07:37:53;;;;;;;35.22;16.00;;;;;;;;;;4925213;29;20055;-72
2022/10/30 07:40:20;;;;;;;33.90;16.27;;;;;;;;;;4929919;29;20318;-72
2022/10/30 07:42:47;;;;;;;35.88;15.73;;;;;;;;;;4944907;29;20509;-72
2022/10/30 07:45:15;;;;;;;45.28;17.17;;;;;;;;;;4928707;29;20055;-72
2022/10/30 07:47:44;;;;;;;41.65;16.55;;;;;;;;;;4930350;29;20055;-72
2022/10/30 07:50:11;;;;;;;33.03;15.20;;;;;;;;;;4941835;29;20055;-72
2022/10/30 07:52:39;;;;;;;31.15;15.43;;;;;;;;;;4927427;29;20055;-71
2022/10/30 07:55:07;;;;;;;34.95;15.60;;;;;;;;;;4946574;29;20681;-72
2022/10/30 07:57:36;;;;;;;31.25;15.20;;;;;;;;;;4947134;29;20122;-72
2022/10/30 08:00:04;;;;;;;36.60;14.75;;;;;;;;;;4944546;29;20052;-72
2022/10/30 08:02:31;;;;;;;37.55;15.02;;;;;;;;;;4943818;29;20059;-72
2022/10/30 08:05:00;;;;;;;38.38;15.35;;;;;;;;;;4932120;28;20423;-71
2022/10/30 08:07:29;;;;;;;35.45;14.75;;;;;;;;;;4935092;29;20067;-72
2022/10/30 08:09:57;;;;;;;32.72;15.05;;;;;;;;;;4946574;29;20056;-71
2022/10/30 08:12:24;;;;;;;34.53;15.05;;;;;;;;;;4947591;29;20059;-72
2022/10/30 08:14:51;;;;;;;29.15;15.48;;;;;;;;;;4931818;29;20055;-71
2022/10/30 08:17:18;;;;;;;32.88;14.98;;;;;;;;;;4927483;29;20056;-72
2022/10/30 08:19:46;;;;;;;35.00;15.88;;;;;;;;;;4945086;29;20772;-71
2022/10/30 08:22:14;;;;;;;29.35;15.15;;;;;;;;;;4944020;29;20050;-72
2022/10/30 08:24:43;;;;;;;31.73;14.13;;;;;;;;;;4944226;29;20516;-71
2022/10/30 08:27:10;;;;;;;39.40;14.77;;;;;;;;;;4943325;29;20051;-71
2022/10/30 08:29:37;;;;;;;33.30;14.90;;;;;;;;;;4944766;29;20066;-71
2022/10/30 08:32:04;;;;;;;31.67;14.52;;;;;;;;;;4944795;29;20449;-72
2022/10/30 08:34:33;;;;;;;26.30;14.45;;;;;;;;;;4945971;29;20070;-72
2022/10/30 08:37:00;;;;;;;32.10;15.35;;;;;;;;;;4928936;29;20066;-71
2022/10/30 08:39:29;;;;;;;31.38;15.18;;;;;;;;;;4946534;29;20055;-71
2022/10/30 08:41:58;;;;;;;33.60;14.35;;;;;;;;;;4926176;29;20052;-72
2022/10/30 08:44:25;;;;;;;32.55;13.55;;;;;;;;;;4945270;29;20086;-72
2022/10/30 08:46:53;;;;;;;30.95;13.43;;;;;;;;;;4929439;29;20062;-72
2022/10/30 08:49:20;;;;;;;30.75;13.57;;;;;;;;;;4947279;29;20722;-72
2022/10/30 08:51:47;;;;;;;33.60;14.00;;;;;;;;;;4933585;29;20059;-72
2022/10/30 08:54:14;;;;;;;32.85;13.57;;;;;;;;;;4929083;29;20494;-72
2022/10/30 08:56:43;;;;;;;27.30;13.88;;;;;;;;;;4944658;29;20059;-72
2022/10/30 08:59:10;;;;;;;32.38;13.32;;;;;;;;;;4933171;29;20585;-72
2022/10/30 09:01:37;;;;;;;31.70;15.02;;;;;;;;;;4946306;29;20058;-72
2022/10/30 09:04:05;;;;;;;28.48;14.05;;;;;;;;;;4942431;28;20078;-72
2022/10/30 09:06:32;;;;;;;24.52;13.50;;;;;;;;;;4936040;29;20055;-72
2022/10/30 09:08:59;;;;;;;28.75;14.10;;;;;;;;;;4931573;29;20043;-72
2022/10/30 09:11:26;;;;;;;28.23;13.02;;;;;;;;;;4936141;29;20090;-72
2022/10/30 09:13:55;;;;;;;27.52;12.93;;;;;;;;;;4935693;29;20402;-72
2022/10/30 09:16:22;;;;;;;28.10;13.40;;;;;;;;;;4931707;29;20524;-72
2022/10/30 09:18:49;;;;;;;35.55;14.93;;;;;;;;;;4931109;29;20074;-72
2022/10/30 09:21:17;;;;;;;30.95;12.93;;;;;;;;;;4929827;29;20517;-72
2022/10/30 09:23:44;;;;;;;28.55;13.15;;;;;;;;;;4945890;29;20102;-72
2022/10/30 09:26:11;;;;;;;27.75;12.80;;;;;;;;;;4928208;29;20051;-72
2022/10/30 09:28:39;;;;;;;24.70;11.73;;;;;;;;;;4945744;29;20054;-71
2022/10/30 09:31:07;;;;;;;25.30;12.95;;;;;;;;;;4941693;29;20070;-72
2022/10/30 09:33:34;;;;;;;32.88;13.13;;;;;;;;;;4945073;29;20566;-72
2022/10/30 09:36:02;;;;;;;24.50;11.98;;;;;;;;;;4929546;29;20055;-72
2022/10/30 09:38:29;;;;;;;21.33;11.73;;;;;;;;;;4927235;29;20047;-72
2022/10/30 09:41:10;;;;;;;25.08;12.80;;;;;;;;;;4930247;29;20086;-72
2022/10/30 09:43:44;;;;;;;30.45;11.43;;;;;;;;;;4929078;29;20055;-72
2022/10/30 09:46:20;;;;;;;30.45;12.02;;;;;;;;;;4945753;29;20055;-72
2022/10/30 09:49:00;;;;;;;29.88;12.10;;;;;;;;;;4935590;29;20051;-73
2022/10/30 09:51:36;;;;;;;28.23;13.07;;;;;;;;;;4933809;29;20074;-72
2022/10/30 09:54:11;;;;;;;31.70;11.90;;;;;;;;;;4947353;29;20055;-72
2022/10/30 09:56:43;;;;;;;28.02;11.48;;;;;;;;;;4928371;29;20056;-72
2022/10/30 09:59:15;;;;;;;29.02;11.73;;;;;;;;;;4933820;29;20048;-72
2022/10/30 10:01:48;;;;;;;21.70;10.37;;;;;;;;;;4950311;29;20514;-72
2022/10/30 10:04:20;;;;;;;21.65;10.40;;;;;;;;;;4936469;28;20291;-72
2022/10/30 10:06:48;;;;;;;29.38;10.90;;;;;;;;;;4944866;29;20076;-72
2022/10/30 10:09:17;;;;;;;25.55;12.45;;;;;;;;;;4937795;29;20579;-72
2022/10/30 10:11:46;;;;;;;22.25;11.52;;;;;;;;;;4933386;29;20062;-73
2022/10/30 10:14:15;;;;;;;25.33;10.80;;;;;;;;;;4938659;29;20106;-73
2022/10/30 10:16:46;;;;;;;24.70;12.13;;;;;;;;;;4950168;29;20664;-72
2022/10/30 10:19:16;;;;;;;31.20;12.55;;;;;;;;;;4943556;29;20486;-73
2022/10/30 10:21:45;;;;;;;28.38;11.10;;;;;;;;;;4933103;29;20059;-72
2022/10/30 10:24:15;;;;;;;21.10;11.18;;;;;;;;;;4944101;29;20890;-72
2022/10/30 10:26:47;;;;;;;22.92;10.88;;;;;;;;;;4948971;29;20061;-72
2022/10/30 10:29:23;;;;;;;24.15;11.05;;;;;;;;;;4942926;29;20134;-72
2022/10/30 10:31:59;;;;;;;24.60;11.23;;;;;;;;;;4929246;29;20062;-72
2022/10/30 10:34:44;;;;;;;26.55;11.82;;;;;;;;;;4947294;29;20143;-72
2022/10/30 10:37:15;;;;;;;25.63;11.60;;;;;;;;;;4948625;29;20550;-72
2022/10/30 10:39:52;;;;;;;21.88;11.50;;;;;;;;;;4927485;29;20538;-72
2022/10/30 10:42:24;;;;;;;29.45;11.48;;;;;;;;;;4947270;29;20522;-72
2022/10/30 10:44:58;;;;;;;28.20;12.10;;;;;;;;;;4946027;29;20058;-72
2022/10/30 10:47:40;;;;;;;28.00;11.55;;;;;;;;;;4944063;29;20047;-73
2022/10/30 10:50:15;;;;;;;24.48;11.40;;;;;;;;;;4946955;29;20039;-72
2022/10/30 10:52:44;;;;;;;21.25;10.70;;;;;;;;;;4949272;29;20490;-72
2022/10/30 10:55:15;;;;;;;23.58;12.05;;;;;;;;;;4944316;29;20047;-72
2022/10/30 10:57:42;;;;;;;25.63;11.13;;;;;;;;;;4927149;29;20047;-72
2022/10/30 11:00:14;;;;;;;27.60;11.15;;;;;;;;;;4929015;29;20688;-72
2022/10/30 11:02:45;;;;;;;28.48;12.07;;;;;;;;;;4929754;29;20055;-72
2022/10/30 11:05:17;;;;;;;21.27;10.95;;;;;;;;;;4933486;29;20508;-72
2022/10/30 11:07:46;;;;;;;28.17;11.43;;;;;;;;;;4929183;29;20109;-72
2022/10/30 11:10:15;;;;;;;25.75;11.70;;;;;;;;;;4948014;29;20101;-72
2022/10/30 11:12:42;;;;;;;22.27;10.55;;;;;;;;;;4933270;29;20054;-72
2022/10/30 11:15:19;;;;;;;24.75;10.63;;;;;;;;;;4947774;29;20059;-72
2022/10/30 11:17:53;;;;;;;23.38;10.32;;;;;;;;;;4940544;29;20062;-72
2022/10/30 11:20:24;;;;;;;31.88;10.75;;;;;;;;;;4929101;29;20058;-72
2022/10/30 11:22:51;;;;;;;28.80;10.98;;;;;;;;;;4948283;29;20109;-72
2022/10/30 11:25:20;;;;;;;23.92;10.38;;;;;;;;;;4947762;29;20053;-72
2022/10/30 11:27:48;;;;;;;26.02;11.15;;;;;;;;;;4943904;29;20051;-71
2022/10/30 11:30:19;;;;;;;26.27;11.15;;;;;;;;;;4926216;29;20051;-72
2022/10/30 11:32:48;;;;;;;26.55;11.30;;;;;;;;;;4944677;29;20047;-72
2022/10/30 11:35:16;;;;;;;27.73;10.77;;;;;;;;;;4947375;29;21229;-72
2022/10/30 11:37:44;;;;;;;25.30;10.43;;;;;;;;;;4948595;29;20066;-72
2022/10/30 11:40:19;;;;;;;26.17;9.80;;;;;;;;;;4929703;29;20051;-72
2022/10/30 11:42:48;;;;;;;27.85;10.15;;;;;;;;;;4946917;29;20130;-72
2022/10/30 11:45:16;;;;;;;26.58;9.35;;;;;;;;;;4946888;29;20050;-72
2022/10/30 11:47:43;;;;;;;37.83;10.55;;;;;;;;;;4943617;29;20627;-72
2022/10/30 11:50:18;;;;;;;25.58;9.60;;;;;;;;;;4945578;29;20055;-72
2022/10/30 11:52:45;;;;;;;27.40;8.88;;;;;;;;;;4931879;29;20051;-72
2022/10/30 11:55:16;;;;;;;26.13;8.77;;;;;;;;;;4931443;29;20532;-72
2022/10/30 11:57:45;;;;;;;21.63;8.88;;;;;;;;;;4927341;29;20063;-72
2022/10/30 12:00:17;;;;;;;28.23;9.45;;;;;;;;;;4931322;29;20051;-72
2022/10/30 12:02:45;;;;;;;21.88;9.20;;;;;;;;;;4947164;28;20054;-72
2022/10/30 12:05:27;;;;;;;25.77;9.20;;;;;;;;;;4947522;29;20059;-72
2022/10/30 12:08:11;;;;;;;22.02;8.90;;;;;;;;;;4946598;29;20059;-72
2022/10/30 12:10:41;;;;;;;22.48;9.38;;;;;;;;;;4928091;29;20055;-72
2022/10/30 12:13:14;;;;;;;23.98;9.63;;;;;;;;;;4946790;29;20054;-72
2022/10/30 12:15:41;;;;;;;20.88;9.60;;;;;;;;;;4940941;28;20154;-72
2022/10/30 12:18:15;;;;;;;22.48;9.88;;;;;;;;;;4947788;29;20707;-72
2022/10/30 12:20:46;;;;;;;23.65;9.93;;;;;;;;;;4928134;29;20062;-72
2022/10/30 12:23:19;;;;;;;27.48;9.75;;;;;;;;;;4947651;29;20051;-72
2022/10/30 12:25:47;;;;;;;29.10;9.98;;;;;;;;;;4943091;29;20051;-72
2022/10/30 12:28:16;;;;;;;21.02;9.25;;;;;;;;;;4944781;29;20055;-72
2022/10/30 12:30:48;;;;;;;23.70;9.35;;;;;;;;;;4941127;29;20271;-72
2022/10/30 12:33:17;;;;;;;20.98;9.55;;;;;;;;;;4925235;29;20055;-72
2022/10/30 12:35:47;;;;;;;21.15;8.70;;;;;;;;;;4945067;29;20059;-72
2022/10/30 12:38:18;;;;;;;20.67;8.77;;;;;;;;;;4947204;29;20066;-72
2022/10/30 12:40:57;;;;;;;25.25;9.30;;;;;;;;;;4945794;29;20065;-72
2022/10/30 12:43:27;;;;;;;25.98;9.07;;;;;;;;;;4931157;29;20055;-72
2022/10/30 12:45:57;;;;;;;26.60;9.35;;;;;;;;;;4947769;29;20573;-72
2022/10/30 12:48:27;;;;;;;26.10;10.23;;;;;;;;;;4929804;29;20055;-72
2022/10/30 12:50:58;;;;;;;26.38;9.93;;;;;;;;;;4946310;29;20062;-72
2022/10/30 12:53:29;;;;;;;22.65;9.32;;;;;;;;;;4942754;29;20079;-73
2022/10/30 12:55:59;;;;;;;21.20;8.27;;;;;;;;;;4929024;29;20819;-72
2022/10/30 12:58:32;;;;;;;24.73;9.25;;;;;;;;;;4945302;29;20809;-72
2022/10/30 13:01:01;;;;;;;30.80;10.35;;;;;;;;;;4926843;29;20063;-72
2022/10/30 13:03:30;;;;;;;17.23;8.35;;;;;;;;;;4929906;29;20055;-73
2022/10/30 13:06:00;;;;;;;19.08;8.43;;;;;;;;;;4929474;29;20058;-72
2022/10/30 13:08:32;;;;;;;19.58;8.10;;;;;;;;;;4946549;29;20470;-72
2022/10/30 13:11:03;;;;;;;23.60;7.77;;;;;;;;;;4930460;29;20077;-72
2022/10/30 13:13:33;;;;;;;26.20;8.23;;;;;;;;;;4946327;29;20774;-72
2022/10/30 13:16:02;;;;;;;22.73;8.48;;;;;;;;;;4947081;29;20043;-72
2022/10/30 13:18:31;;;;;;;25.25;8.07;;;;;;;;;;4946657;29;20414;-72
2022/10/30 13:21:16;;;;;;;20.42;7.97;;;;;;;;;;4943470;29;20142;-73
2022/10/30 13:23:51;;;;;;;27.83;7.88;;;;;;;;;;4946445;29;20077;-72
2022/10/30 13:26:21;;;;;;;15.50;7.25;;;;;;;;;;4946619;28;20054;-73
2022/10/30 13:28:52;;;;;;;19.27;6.80;;;;;;;;;;4946341;29;20058;-72
2022/10/30 13:31:23;;;;;;;17.50;6.55;;;;;;;;;;4929526;29;20043;-72
2022/10/30 13:33:56;;;;;;;16.08;7.03;;;;;;;;;;4949444;29;20054;-72
2022/10/30 13:36:27;;;;;;;17.95;6.55;;;;;;;;;;4932983;29;20185;-72
2022/10/30 13:38:58;;;;;;;20.75;6.28;;;;;;;;;;4950274;29;20118;-72
2022/10/30 13:41:31;;;;;;;19.85;6.22;;;;;;;;;;4949946;29;20051;-73
2022/10/30 13:44:02;;;;;;;20.65;6.40;;;;;;;;;;4950269;29;20062;-72
2022/10/30 13:46:33;;;;;;;20.77;6.18;;;;;;;;;;4949006;29;20491;-72
2022/10/30 13:49:07;;;;;;;15.38;5.90;;;;;;;;;;4933593;29;20061;-72
2022/10/30 13:51:34;;;;;;;;;;;;;;;;;;4933134;29;20066;-72
2022/10/30 13:54:05;;;;;;;20.67;7.43;;;;;;;;;;4933642;29;19962;-72
2022/10/30 13:56:33;;;;;;;15.13;6.63;;;;;;;;;;4945124;29;20051;-72
2022/10/30 13:59:05;;;;;;;17.17;6.00;;;;;;;;;;4931342;29;20063;-72
2022/10/30 14:01:36;;;;;;;21.40;7.95;;;;;;;;;;4948426;29;20051;-72
2022/10/30 14:04:05;;;;;;;14.75;7.57;;;;;;;;;;4946724;28;20632;-72
2022/10/30 14:06:38;;;;;;;15.13;6.75;;;;;;;;;;4949264;29;20524;-71
2022/10/30 14:09:12;;;;;;;27.42;7.38;;;;;;;;;;4933718;29;20050;-72
2022/10/30 14:11:40;;;;;;;18.50;6.60;;;;;;;;;;4931656;29;20051;-71
2022/10/30 14:14:24;;;;;;;20.30;6.53;;;;;;;;;;4949843;29;20062;-71
2022/10/30 14:17:08;;;;;;;18.73;7.50;;;;;;;;;;4926066;29;20078;-72
2022/10/30 14:20:01;;;;;;;20.90;7.05;;;;;;;;;;4927743;29;20074;-72
2022/10/30 14:22:28;;;;;;;18.00;7.82;;;;;;;;;;4928325;29;20054;-71
2022/10/30 14:24:57;;;;;;;20.20;7.50;;;;;;;;;;4927580;29;20060;-72
2022/10/30 14:27:27;;;;;;;24.13;8.38;;;;;;;;;;4926831;29;20059;-71
2022/10/30 14:29:54;;;;;;;17.40;7.25;;;;;;;;;;4928848;29;20108;-72
2022/10/30 14:32:40;;;;;;;20.65;7.50;;;;;;;;;;4925449;29;20078;-72